Gosberton, United Kingdom
Current Conditions -  °F | °C
As of 6:50 AM on Sunday 23 Nov 2014 (Local Time) from EGXC Reporting Station
Moderate Rain Moderate Rain  
Wind Chill: 44°   Ceiling: 7000
Heat Index: 48°   Visibility: 4mi
Dew Point: 46°   Wind: 10mph
Humidity: 93%   Direction: 310°NW
Pressure: 29.97"   Gusts: NA
Location:  52.87°N, 0.16°W
Report Text: EGXC 230650Z 31009KT 6000 RA FEW045 BKN070 09/08 Q1015 WHT
Loading
Personal Weather Stations






























Interactive Weather Map New forecast layout! Learn more

10-Day Weather Forecast

Advertisements
Track Severe Weather on mobile